Barre, VT (05641)

6:15 AM EDT on August 04, 2015 (GMT -0400)
Washington | | Change Station
CLOSE
Current Station
Personal Weather Station
Location: Washington, VT
Elevation: 1283 ft
Nearby Weather Stations

Elev 1283 ft 44.12 °N, 72.43 °W | Updated 9 minutes ago

Partly Cloudy
Partly Cloudy
58.8 °F
Feels Like 58.8 °F
N
0.0
Wind Variable Wind from SSW

Today
High -- | Low -- °F
--% Chance of Precip.
Yesterday
High -- | Low -- °F
Precip. -- in
5:40 AM 8:10 PM
Waning Gibbous, 79% visible
Pressure 29.86 in
Visibility 8.0 miles
Clouds Clear
Dew Point 58 °F
Humidity 98%
Rainfall 0.00 in
Snow Depth Not available.
UV 0 out of 12
Pollen 5.60 out of 12
Air Quality Not available.
Flu Activity Not available.
METAR KMPV 040951Z AUTO 17003KT 8SM CLR 14/13 A2987 RMK AO2 SLP112 T01440133

More Conditions Fewer Conditions

Pressure 29.86 in
Visibility 8.0 miles
Clouds Clear
Dew Point 58 °F
Humidity 98%
Rainfall 0.00 in
Snow Depth Not available.
UV 0 out of 12
Pollen 5.60 out of 12
Air Quality Not available.
Flu Activity Not available.
METAR KMPV 040951Z AUTO 17003KT 8SM CLR 14/13 A2987 RMK AO2 SLP112 T01440133

More Conditions Fewer Conditions

10-Day Weather Forecast

×

Almanac

Astronomy

Aug. 04, 2015 Rise Set
Actual Time
Civil Twilight
Nautical Twilight
Astronomical Twilight
Moon
Length of Visible Light
Length of Day
Tomorrow will be .
, % of the Moon is Illuminated

Today's Extremes

State Highs State Lows

Community

WunderPhotos

Upload Photos

1,843,883 photos uploaded!

WunderBlogs® & News

Nearby

Air Quality

  Air Quality AQ Index Pollutant
Not available.

Snow Depth

Station Depth Elevation

Earthquake Activity

City Distance Mag. Time & Date
Minimum magnitude displayed is 2.5.

Coastal Water Temperatures

Place Temperature

Stations

Nearby Weather Stations

Station Location Temp. Windchill Dew Point Humidity Wind Precip. Elev Updated Type